sensor_id;sensor_type;location;lat;lon;timestamp;pressure;altitude;pressure_sealevel;temperature;humidity
36828;BME280;22766;48.042;11.192;2023-12-28T00:02:11;95242.72;;;0.03;100.00
36828;BME280;22766;48.042;11.192;2023-12-28T00:04:40;95219.34;;;0.12;100.00
36828;BME280;22766;48.042;11.192;2023-12-28T00:07:07;95235.59;;;0.09;100.00
36828;BME280;22766;48.042;11.192;2023-12-28T00:09:34;95227.34;;;0.06;100.00
36828;BME280;22766;48.042;11.192;2023-12-28T00:12:00;95215.31;;;-0.07;100.00
36828;BME280;22766;48.042;11.192;2023-12-28T00:14:27;95225.28;;;-0.04;100.00
36828;BME280;22766;48.042;11.192;2023-12-28T00:16:54;95228.31;;;-0.13;100.00
36828;BME280;22766;48.042;11.192;2023-12-28T00:19:21;95221.78;;;-0.17;100.00
36828;BME280;22766;48.042;11.192;2023-12-28T00:21:48;95208.03;;;-0.13;100.00
36828;BME280;22766;48.042;11.192;2023-12-28T00:24:16;95236.91;;;0.00;100.00
36828;BME280;22766;48.042;11.192;2023-12-28T00:26:43;95217.97;;;0.06;100.00
36828;BME280;22766;48.042;11.192;2023-12-28T00:29:11;95218.63;;;0.10;100.00
36828;BME280;22766;48.042;11.192;2023-12-28T00:31:37;95236.13;;;0.30;100.00
36828;BME280;22766;48.042;11.192;2023-12-28T00:34:05;95231.88;;;0.30;100.00
36828;BME280;22766;48.042;11.192;2023-12-28T00:36:32;95239.56;;;0.29;100.00
36828;BME280;22766;48.042;11.192;2023-12-28T00:39:00;95239.66;;;0.27;100.00
36828;BME280;22766;48.042;11.192;2023-12-28T00:41:27;95233.75;;;0.27;100.00
36828;BME280;22766;48.042;11.192;2023-12-28T00:43:54;95233.41;;;0.33;100.00
36828;BME280;22766;48.042;11.192;2023-12-28T00:46:21;95232.75;;;0.29;100.00
36828;BME280;22766;48.042;11.192;2023-12-28T00:48:47;95238.56;;;0.31;100.00
36828;BME280;22766;48.042;11.192;2023-12-28T00:51:15;95234.09;;;0.21;100.00
36828;BME280;22766;48.042;11.192;2023-12-28T00:53:41;95231.47;;;0.22;100.00
36828;BME280;22766;48.042;11.192;2023-12-28T00:56:09;95223.84;;;0.22;100.00
36828;BME280;22766;48.042;11.192;2023-12-28T00:58:40;95228.66;;;0.27;100.00
36828;BME280;22766;48.042;11.192;2023-12-28T01:01:08;95228.31;;;0.33;100.00
36828;BME280;22766;48.042;11.192;2023-12-28T01:03:35;95238.16;;;0.39;100.00
36828;BME280;22766;48.042;11.192;2023-12-28T01:06:04;95235.50;;;0.40;100.00
36828;BME280;22766;48.042;11.192;2023-12-28T01:08:31;95240.22;;;0.32;100.00
36828;BME280;22766;48.042;11.192;2023-12-28T01:11:01;95252.97;;;0.31;100.00
36828;BME280;22766;48.042;11.192;2023-12-28T01:13:28;95256.03;;;0.22;100.00
36828;BME280;22766;48.042;11.192;2023-12-28T01:15:55;95254.91;;;0.12;100.00
36828;BME280;22766;48.042;11.192;2023-12-28T01:18:22;95262.69;;;0.09;100.00
36828;BME280;22766;48.042;11.192;2023-12-28T01:20:50;95267.94;;;0.06;100.00
36828;BME280;22766;48.042;11.192;2023-12-28T01:23:17;95273.34;;;-0.01;100.00
36828;BME280;22766;48.042;11.192;2023-12-28T01:25:44;95278.41;;;-0.01;100.00
36828;BME280;22766;48.042;11.192;2023-12-28T01:28:11;95282.44;;;0.04;100.00
36828;BME280;22766;48.042;11.192;2023-12-28T01:30:38;95277.19;;;0.07;100.00
36828;BME280;22766;48.042;11.192;2023-12-28T01:33:05;95272.75;;;0.10;100.00
36828;BME280;22766;48.042;11.192;2023-12-28T01:35:31;95276.69;;;0.16;100.00
36828;BME280;22766;48.042;11.192;2023-12-28T01:37:58;95279.06;;;0.19;100.00
36828;BME280;22766;48.042;11.192;2023-12-28T01:40:27;95283.44;;;0.31;100.00
36828;BME280;22766;48.042;11.192;2023-12-28T01:42:53;95279.75;;;0.36;100.00
36828;BME280;22766;48.042;11.192;2023-12-28T01:45:20;95281.09;;;0.28;100.00
36828;BME280;22766;48.042;11.192;2023-12-28T01:47:48;95271.19;;;0.23;100.00
36828;BME280;22766;48.042;11.192;2023-12-28T01:50:15;95281.75;;;0.31;100.00
36828;BME280;22766;48.042;11.192;2023-12-28T01:52:43;95276.56;;;0.33;100.00
36828;BME280;22766;48.042;11.192;2023-12-28T01:55:11;95284.69;;;0.39;100.00
36828;BME280;22766;48.042;11.192;2023-12-28T01:57:38;95288.91;;;0.25;100.00
36828;BME280;22766;48.042;11.192;2023-12-28T02:00:06;95289.97;;;0.21;100.00
36828;BME280;22766;48.042;11.192;2023-12-28T02:02:43;95290.06;;;0.04;100.00
36828;BME280;22766;48.042;11.192;2023-12-28T02:05:11;95293.13;;;-0.23;100.00
36828;BME280;22766;48.042;11.192;2023-12-28T02:07:39;95281.25;;;-0.38;100.00
36828;BME280;22766;48.042;11.192;2023-12-28T02:10:07;95287.72;;;-0.48;100.00
36828;BME280;22766;48.042;11.192;2023-12-28T02:12:34;95277.50;;;-0.46;100.00
36828;BME280;22766;48.042;11.192;2023-12-28T02:15:01;95279.13;;;-0.45;100.00
36828;BME280;22766;48.042;11.192;2023-12-28T02:17:33;95287.25;;;-0.39;100.00
36828;BME280;22766;48.042;11.192;2023-12-28T02:20:03;95286.97;;;-0.50;100.00
36828;BME280;22766;48.042;11.192;2023-12-28T02:22:33;95286.25;;;-0.52;100.00
36828;BME280;22766;48.042;11.192;2023-12-28T02:25:08;95285.63;;;-0.57;100.00
36828;BME280;22766;48.042;11.192;2023-12-28T02:27:46;95274.03;;;-0.61;100.00
36828;BME280;22766;48.042;11.192;2023-12-28T02:30:21;95273.31;;;-0.47;100.00
36828;BME280;22766;48.042;11.192;2023-12-28T02:33:10;95280.38;;;-0.37;100.00
36828;BME280;22766;48.042;11.192;2023-12-28T02:35:48;95283.03;;;-0.40;100.00
36828;BME280;22766;48.042;11.192;2023-12-28T02:38:18;95286.06;;;-0.49;100.00
36828;BME280;22766;48.042;11.192;2023-12-28T02:40:47;95280.66;;;-0.58;100.00
36828;BME280;22766;48.042;11.192;2023-12-28T02:43:15;95286.78;;;-0.62;100.00
36828;BME280;22766;48.042;11.192;2023-12-28T02:45:42;95284.19;;;-0.61;100.00
36828;BME280;22766;48.042;11.192;2023-12-28T02:48:09;95286.47;;;-0.56;100.00
36828;BME280;22766;48.042;11.192;2023-12-28T02:50:36;95277.97;;;-0.55;100.00
36828;BME280;22766;48.042;11.192;2023-12-28T02:53:03;95283.69;;;-0.52;100.00
36828;BME280;22766;48.042;11.192;2023-12-28T02:55:30;95276.00;;;-0.50;100.00
36828;BME280;22766;48.042;11.192;2023-12-28T02:57:59;95277.06;;;-0.54;100.00
36828;BME280;22766;48.042;11.192;2023-12-28T03:00:31;95279.59;;;-0.54;100.00
36828;BME280;22766;48.042;11.192;2023-12-28T03:02:58;95274.22;;;-0.48;100.00
36828;BME280;22766;48.042;11.192;2023-12-28T03:05:26;95282.16;;;-0.39;100.00
36828;BME280;22766;48.042;11.192;2023-12-28T03:07:53;95286.94;;;-0.33;100.00
36828;BME280;22766;48.042;11.192;2023-12-28T03:10:22;95284.22;;;-0.30;100.00
36828;BME280;22766;48.042;11.192;2023-12-28T03:12:49;95277.84;;;-0.21;100.00
36828;BME280;22766;48.042;11.192;2023-12-28T03:15:19;95281.78;;;-0.16;100.00
36828;BME280;22766;48.042;11.192;2023-12-28T03:17:46;95294.47;;;-0.16;100.00
36828;BME280;22766;48.042;11.192;2023-12-28T03:20:13;95281.59;;;-0.13;100.00
36828;BME280;22766;48.042;11.192;2023-12-28T03:22:42;95280.72;;;-0.12;100.00
36828;BME280;22766;48.042;11.192;2023-12-28T03:25:10;95283.00;;;-0.07;100.00
36828;BME280;22766;48.042;11.192;2023-12-28T03:27:36;95279.63;;;-0.08;100.00
36828;BME280;22766;48.042;11.192;2023-12-28T03:30:03;95286.44;;;-0.08;100.00
36828;BME280;22766;48.042;11.192;2023-12-28T03:32:31;95282.34;;;-0.11;100.00
36828;BME280;22766;48.042;11.192;2023-12-28T03:34:58;95277.91;;;-0.07;100.00
36828;BME280;22766;48.042;11.192;2023-12-28T03:37:25;95278.16;;;0.04;100.00
36828;BME280;22766;48.042;11.192;2023-12-28T03:39:52;95278.16;;;0.20;100.00
36828;BME280;22766;48.042;11.192;2023-12-28T03:42:19;95281.34;;;0.23;100.00
36828;BME280;22766;48.042;11.192;2023-12-28T03:44:46;95279.81;;;0.21;100.00
36828;BME280;22766;48.042;11.192;2023-12-28T03:47:13;95285.03;;;0.18;100.00
36828;BME280;22766;48.042;11.192;2023-12-28T03:49:41;95290.94;;;0.18;100.00
36828;BME280;22766;48.042;11.192;2023-12-28T03:52:08;95290.09;;;0.18;100.00
36828;BME280;22766;48.042;11.192;2023-12-28T03:54:35;95279.22;;;0.16;100.00
36828;BME280;22766;48.042;11.192;2023-12-28T03:57:02;95279.94;;;0.18;100.00
36828;BME280;22766;48.042;11.192;2023-12-28T03:59:29;95287.47;;;0.19;100.00
36828;BME280;22766;48.042;11.192;2023-12-28T04:01:55;95286.69;;;0.19;100.00
36828;BME280;22766;48.042;11.192;2023-12-28T04:04:22;95292.41;;;0.22;100.00
36828;BME280;22766;48.042;11.192;2023-12-28T04:06:49;95296.50;;;0.25;100.00
36828;BME280;22766;48.042;11.192;2023-12-28T04:09:16;95303.44;;;0.21;100.00
36828;BME280;22766;48.042;11.192;2023-12-28T04:11:45;95303.72;;;0.01;100.00
36828;BME280;22766;48.042;11.192;2023-12-28T04:14:12;95303.56;;;-0.12;100.00
36828;BME280;22766;48.042;11.192;2023-12-28T04:16:39;95302.88;;;-0.15;100.00
36828;BME280;22766;48.042;11.192;2023-12-28T04:19:06;95299.47;;;0.02;100.00
36828;BME280;22766;48.042;11.192;2023-12-28T04:21:34;95300.19;;;0.04;100.00
36828;BME280;22766;48.042;11.192;2023-12-28T04:24:02;95301.41;;;-0.04;100.00
36828;BME280;22766;48.042;11.192;2023-12-28T04:26:29;95302.47;;;-0.08;100.00
36828;BME280;22766;48.042;11.192;2023-12-28T04:28:57;95302.81;;;-0.14;100.00
36828;BME280;22766;48.042;11.192;2023-12-28T04:31:24;95303.63;;;-0.29;100.00
36828;BME280;22766;48.042;11.192;2023-12-28T04:33:52;95298.22;;;-0.38;100.00
36828;BME280;22766;48.042;11.192;2023-12-28T04:36:19;95292.78;;;-0.48;100.00
36828;BME280;22766;48.042;11.192;2023-12-28T04:38:46;95285.09;;;-0.46;100.00
36828;BME280;22766;48.042;11.192;2023-12-28T04:41:13;95292.72;;;-0.46;100.00
36828;BME280;22766;48.042;11.192;2023-12-28T04:43:39;95296.06;;;-0.46;100.00
36828;BME280;22766;48.042;11.192;2023-12-28T04:46:06;95301.28;;;-0.49;100.00
36828;BME280;22766;48.042;11.192;2023-12-28T04:48:34;95309.28;;;-0.56;100.00
36828;BME280;22766;48.042;11.192;2023-12-28T04:51:04;95301.69;;;-0.56;100.00
36828;BME280;22766;48.042;11.192;2023-12-28T04:53:31;95305.34;;;-0.62;100.00
36828;BME280;22766;48.042;11.192;2023-12-28T04:55:59;95311.38;;;-0.64;100.00
36828;BME280;22766;48.042;11.192;2023-12-28T04:58:25;95304.97;;;-0.54;100.00
36828;BME280;22766;48.042;11.192;2023-12-28T05:00:52;95305.03;;;-0.56;100.00
36828;BME280;22766;48.042;11.192;2023-12-28T05:03:19;95301.47;;;-0.52;100.00
36828;BME280;22766;48.042;11.192;2023-12-28T05:05:46;95299.56;;;-0.48;100.00
36828;BME280;22766;48.042;11.192;2023-12-28T05:08:15;95298.00;;;-0.51;100.00
36828;BME280;22766;48.042;11.192;2023-12-28T05:10:42;95304.13;;;-0.55;100.00
36828;BME280;22766;48.042;11.192;2023-12-28T05:13:10;95305.97;;;-0.41;100.00
36828;BME280;22766;48.042;11.192;2023-12-28T05:15:37;95302.47;;;-0.23;100.00
36828;BME280;22766;48.042;11.192;2023-12-28T05:18:04;95312.25;;;0.00;100.00
36828;BME280;22766;48.042;11.192;2023-12-28T05:20:31;95305.28;;;0.04;100.00
36828;BME280;22766;48.042;11.192;2023-12-28T05:22:58;95317.88;;;0.21;100.00
36828;BME280;22766;48.042;11.192;2023-12-28T05:25:25;95324.53;;;0.08;100.00
36828;BME280;22766;48.042;11.192;2023-12-28T05:27:51;95327.03;;;-0.08;100.00
36828;BME280;22766;48.042;11.192;2023-12-28T05:30:19;95326.94;;;-0.22;100.00
36828;BME280;22766;48.042;11.192;2023-12-28T05:32:46;95328.41;;;-0.18;100.00
36828;BME280;22766;48.042;11.192;2023-12-28T05:35:13;95321.88;;;-0.07;100.00
36828;BME280;22766;48.042;11.192;2023-12-28T05:37:40;95327.38;;;-0.14;100.00
36828;BME280;22766;48.042;11.192;2023-12-28T05:40:07;95323.19;;;-0.31;100.00
36828;BME280;22766;48.042;11.192;2023-12-28T05:42:36;95326.09;;;-0.38;100.00
36828;BME280;22766;48.042;11.192;2023-12-28T05:45:04;95325.75;;;-0.48;100.00
36828;BME280;22766;48.042;11.192;2023-12-28T05:47:31;95321.38;;;-0.61;100.00
36828;BME280;22766;48.042;11.192;2023-12-28T05:49:58;95324.16;;;-0.66;100.00
36828;BME280;22766;48.042;11.192;2023-12-28T05:52:25;95322.06;;;-0.58;100.00
36828;BME280;22766;48.042;11.192;2023-12-28T05:54:52;95324.75;;;-0.13;100.00
36828;BME280;22766;48.042;11.192;2023-12-28T05:57:19;95331.47;;;0.20;100.00
36828;BME280;22766;48.042;11.192;2023-12-28T05:59:45;95325.53;;;0.50;100.00
36828;BME280;22766;48.042;11.192;2023-12-28T06:02:12;95321.63;;;0.74;100.00
36828;BME280;22766;48.042;11.192;2023-12-28T06:04:39;95314.94;;;0.87;100.00
36828;BME280;22766;48.042;11.192;2023-12-28T06:07:06;95313.09;;;1.05;100.00
36828;BME280;22766;48.042;11.192;2023-12-28T06:09:33;95320.53;;;0.94;100.00
36828;BME280;22766;48.042;11.192;2023-12-28T06:12:00;95313.25;;;0.88;100.00
36828;BME280;22766;48.042;11.192;2023-12-28T06:14:27;95318.59;;;0.83;100.00
36828;BME280;22766;48.042;11.192;2023-12-28T06:16:54;95314.50;;;0.81;100.00
36828;BME280;22766;48.042;11.192;2023-12-28T06:19:21;95318.75;;;0.80;100.00
36828;BME280;22766;48.042;11.192;2023-12-28T06:21:49;95320.50;;;1.38;100.00
36828;BME280;22766;48.042;11.192;2023-12-28T06:24:16;95316.97;;;1.54;100.00
36828;BME280;22766;48.042;11.192;2023-12-28T06:26:44;95311.41;;;1.90;100.00
36828;BME280;22766;48.042;11.192;2023-12-28T06:29:11;95313.28;;;2.15;100.00
36828;BME280;22766;48.042;11.192;2023-12-28T06:31:38;95307.63;;;2.77;96.45
36828;BME280;22766;48.042;11.192;2023-12-28T06:34:06;95306.28;;;3.36;87.25
36828;BME280;22766;48.042;11.192;2023-12-28T06:36:33;95310.53;;;3.98;72.23
36828;BME280;22766;48.042;11.192;2023-12-28T06:39:00;95307.28;;;4.32;67.48
36828;BME280;22766;48.042;11.192;2023-12-28T06:41:27;95308.13;;;4.80;60.14
36828;BME280;22766;48.042;11.192;2023-12-28T06:43:56;95300.22;;;5.18;56.92
36828;BME280;22766;48.042;11.192;2023-12-28T06:46:23;95300.22;;;5.29;55.45
36828;BME280;22766;48.042;11.192;2023-12-28T06:48:50;95301.41;;;5.36;54.42
36828;BME280;22766;48.042;11.192;2023-12-28T06:51:19;95301.72;;;5.66;53.28
36828;BME280;22766;48.042;11.192;2023-12-28T06:53:47;95298.59;;;5.85;51.60
36828;BME280;22766;48.042;11.192;2023-12-28T06:56:14;95302.88;;;5.73;52.02
36828;BME280;22766;48.042;11.192;2023-12-28T06:58:44;95297.03;;;5.71;52.19
36828;BME280;22766;48.042;11.192;2023-12-28T07:01:11;95297.78;;;5.95;51.70
36828;BME280;22766;48.042;11.192;2023-12-28T07:03:40;95293.78;;;6.02;50.57
36828;BME280;22766;48.042;11.192;2023-12-28T07:06:07;95299.63;;;6.15;49.59
36828;BME280;22766;48.042;11.192;2023-12-28T07:08:35;95306.84;;;6.32;47.77
36828;BME280;22766;48.042;11.192;2023-12-28T07:11:03;95289.75;;;6.53;47.46
36828;BME280;22766;48.042;11.192;2023-12-28T07:13:31;95288.31;;;6.72;46.20
36828;BME280;22766;48.042;11.192;2023-12-28T07:16:00;95293.94;;;6.66;46.55
36828;BME280;22766;48.042;11.192;2023-12-28T07:18:27;95291.06;;;6.37;48.27
36828;BME280;22766;48.042;11.192;2023-12-28T07:20:55;95294.97;;;6.09;49.31
36828;BME280;22766;48.042;11.192;2023-12-28T07:23:22;95304.06;;;5.91;49.76
36828;BME280;22766;48.042;11.192;2023-12-28T07:25:49;95300.13;;;5.98;48.20
36828;BME280;22766;48.042;11.192;2023-12-28T07:28:16;95305.00;;;5.90;48.86
36828;BME280;22766;48.042;11.192;2023-12-28T07:30:43;95297.28;;;5.79;49.21
36828;BME280;22766;48.042;11.192;2023-12-28T07:33:10;95306.34;;;5.61;52.35
36828;BME280;22766;48.042;11.192;2023-12-28T07:35:38;95312.56;;;5.24;56.14
36828;BME280;22766;48.042;11.192;2023-12-28T07:38:05;95320.63;;;4.96;60.30
36828;BME280;22766;48.042;11.192;2023-12-28T07:40:32;95314.88;;;5.16;54.97
36828;BME280;22766;48.042;11.192;2023-12-28T07:42:59;95318.06;;;4.96;63.41
36828;BME280;22766;48.042;11.192;2023-12-28T07:45:28;95311.63;;;4.90;65.14
36828;BME280;22766;48.042;11.192;2023-12-28T07:47:55;95323.22;;;4.83;67.61
36828;BME280;22766;48.042;11.192;2023-12-28T07:50:22;95316.25;;;4.85;68.74
36828;BME280;22766;48.042;11.192;2023-12-28T07:52:49;95322.34;;;4.95;67.82
36828;BME280;22766;48.042;11.192;2023-12-28T07:55:16;95331.03;;;5.16;64.22
36828;BME280;22766;48.042;11.192;2023-12-28T07:57:43;95333.50;;;5.29;60.86
36828;BME280;22766;48.042;11.192;2023-12-28T08:00:11;95324.66;;;5.79;54.57
36828;BME280;22766;48.042;11.192;2023-12-28T08:02:38;95333.13;;;6.56;48.76
36828;BME280;22766;48.042;11.192;2023-12-28T08:05:05;95343.19;;;7.23;48.26
36828;BME280;22766;48.042;11.192;2023-12-28T08:07:32;95354.47;;;7.73;48.23
36828;BME280;22766;48.042;11.192;2023-12-28T08:10:00;95357.41;;;8.19;49.19
36828;BME280;22766;48.042;11.192;2023-12-28T08:12:27;95356.78;;;8.57;47.23
36828;BME280;22766;48.042;11.192;2023-12-28T08:14:55;95360.44;;;8.54;49.53
36828;BME280;22766;48.042;11.192;2023-12-28T08:17:22;95364.34;;;8.48;49.94
36828;BME280;22766;48.042;11.192;2023-12-28T08:19:50;95361.00;;;8.27;47.93
36828;BME280;22766;48.042;11.192;2023-12-28T08:22:17;95356.69;;;8.28;49.82
36828;BME280;22766;48.042;11.192;2023-12-28T08:24:45;95361.69;;;8.29;50.20
36828;BME280;22766;48.042;11.192;2023-12-28T08:27:12;95364.47;;;8.47;50.74
36828;BME280;22766;48.042;11.192;2023-12-28T08:29:40;95361.31;;;8.74;49.02
36828;BME280;22766;48.042;11.192;2023-12-28T08:32:09;95355.28;;;8.54;51.12
36828;BME280;22766;48.042;11.192;2023-12-28T08:34:37;95366.84;;;8.69;50.53
36828;BME280;22766;48.042;11.192;2023-12-28T08:37:04;95364.97;;;8.81;49.14
36828;BME280;22766;48.042;11.192;2023-12-28T08:39:31;95365.13;;;8.89;48.58
36828;BME280;22766;48.042;11.192;2023-12-28T08:41:58;95362.97;;;9.03;50.52
36828;BME280;22766;48.042;11.192;2023-12-28T08:44:25;95371.38;;;9.15;50.19
36828;BME280;22766;48.042;11.192;2023-12-28T08:46:52;95366.56;;;8.82;50.21
36828;BME280;22766;48.042;11.192;2023-12-28T08:49:19;95364.56;;;8.85;51.60
36828;BME280;22766;48.042;11.192;2023-12-28T08:51:46;95370.22;;;8.70;54.39
36828;BME280;22766;48.042;11.192;2023-12-28T08:54:13;95369.56;;;8.77;56.07
36828;BME280;22766;48.042;11.192;2023-12-28T08:56:41;95385.13;;;8.76;57.99
36828;BME280;22766;48.042;11.192;2023-12-28T08:59:07;95377.75;;;9.01;58.73
36828;BME280;22766;48.042;11.192;2023-12-28T09:01:34;95368.66;;;8.97;58.15
36828;BME280;22766;48.042;11.192;2023-12-28T09:04:01;95373.00;;;9.25;51.95
36828;BME280;22766;48.042;11.192;2023-12-28T09:06:28;95368.97;;;9.32;53.24
36828;BME280;22766;48.042;11.192;2023-12-28T09:08:55;95365.78;;;9.77;50.23
36828;BME280;22766;48.042;11.192;2023-12-28T09:11:23;95370.44;;;9.54;53.21
36828;BME280;22766;48.042;11.192;2023-12-28T09:13:50;95373.84;;;9.55;48.50
36828;BME280;22766;48.042;11.192;2023-12-28T09:16:17;95373.13;;;9.81;47.44
36828;BME280;22766;48.042;11.192;2023-12-28T09:18:44;95375.00;;;9.89;46.81
36828;BME280;22766;48.042;11.192;2023-12-28T09:21:12;95369.16;;;9.96;48.65
36828;BME280;22766;48.042;11.192;2023-12-28T09:23:38;95382.31;;;10.49;38.98
36828;BME280;22766;48.042;11.192;2023-12-28T09:26:07;95379.44;;;10.62;39.13
36828;BME280;22766;48.042;11.192;2023-12-28T09:28:34;95377.59;;;10.72;41.88
36828;BME280;22766;48.042;11.192;2023-12-28T09:31:01;95367.22;;;10.81;44.10
36828;BME280;22766;48.042;11.192;2023-12-28T09:33:29;95362.28;;;10.61;52.76
36828;BME280;22766;48.042;11.192;2023-12-28T09:35:56;95367.25;;;10.54;54.32
36828;BME280;22766;48.042;11.192;2023-12-28T09:38:23;95363.66;;;10.28;53.58
36828;BME280;22766;48.042;11.192;2023-12-28T09:40:52;95362.22;;;10.16;57.69
36828;BME280;22766;48.042;11.192;2023-12-28T09:43:26;95356.03;;;9.71;60.11
36828;BME280;22766;48.042;11.192;2023-12-28T09:46:00;95354.84;;;9.08;64.26
36828;BME280;22766;48.042;11.192;2023-12-28T09:48:28;95350.50;;;9.47;60.31
36828;BME280;22766;48.042;11.192;2023-12-28T09:50:55;95341.38;;;9.71;56.21
36828;BME280;22766;48.042;11.192;2023-12-28T09:53:24;95346.66;;;9.79;52.98
36828;BME280;22766;48.042;11.192;2023-12-28T09:55:52;95345.72;;;9.71;47.21
36828;BME280;22766;48.042;11.192;2023-12-28T09:58:20;95342.34;;;9.70;45.17
36828;BME280;22766;48.042;11.192;2023-12-28T10:00:49;95346.28;;;9.74;43.79
36828;BME280;22766;48.042;11.192;2023-12-28T10:03:17;95346.06;;;10.14;41.65
36828;BME280;22766;48.042;11.192;2023-12-28T10:05:45;95336.25;;;10.54;41.18
36828;BME280;22766;48.042;11.192;2023-12-28T10:08:14;95331.72;;;10.83;39.55
36828;BME280;22766;48.042;11.192;2023-12-28T10:10:42;95331.00;;;10.91;43.90
36828;BME280;22766;48.042;11.192;2023-12-28T10:13:10;95328.19;;;11.02;46.98
36828;BME280;22766;48.042;11.192;2023-12-28T10:15:38;95328.81;;;10.96;48.21
36828;BME280;22766;48.042;11.192;2023-12-28T10:18:05;95331.97;;;11.07;43.32
36828;BME280;22766;48.042;11.192;2023-12-28T10:20:32;95322.16;;;11.11;41.39
36828;BME280;22766;48.042;11.192;2023-12-28T10:22:59;95332.94;;;11.06;40.90
36828;BME280;22766;48.042;11.192;2023-12-28T10:25:29;95330.31;;;10.89;40.13
36828;BME280;22766;48.042;11.192;2023-12-28T10:27:56;95329.38;;;11.07;39.60
36828;BME280;22766;48.042;11.192;2023-12-28T10:30:23;95326.50;;;10.93;39.79
36828;BME280;22766;48.042;11.192;2023-12-28T10:32:51;95331.28;;;10.88;41.55
36828;BME280;22766;48.042;11.192;2023-12-28T10:35:19;95319.69;;;10.74;50.37
36828;BME280;22766;48.042;11.192;2023-12-28T10:37:48;95329.03;;;10.30;61.01
36828;BME280;22766;48.042;11.192;2023-12-28T10:40:17;95330.28;;;10.17;62.33
36828;BME280;22766;48.042;11.192;2023-12-28T10:42:56;95327.81;;;9.69;64.93
36828;BME280;22766;48.042;11.192;2023-12-28T10:45:25;95320.91;;;9.70;65.88
36828;BME280;22766;48.042;11.192;2023-12-28T10:48:13;95328.53;;;9.33;68.37
36828;BME280;22766;48.042;11.192;2023-12-28T10:50:47;95319.06;;;9.24;66.37
36828;BME280;22766;48.042;11.192;2023-12-28T10:53:38;95318.50;;;9.11;65.34
36828;BME280;22766;48.042;11.192;2023-12-28T10:59:06;95323.50;;;9.03;60.54
36828;BME280;22766;48.042;11.192;2023-12-28T11:01:37;95312.13;;;9.05;59.68
36828;BME280;22766;48.042;11.192;2023-12-28T11:04:16;95309.44;;;9.07;59.52
36828;BME280;22766;48.042;11.192;2023-12-28T11:06:46;95305.34;;;9.23;59.26
36828;BME280;22766;48.042;11.192;2023-12-28T11:09:14;95302.59;;;9.44;59.29
36828;BME280;22766;48.042;11.192;2023-12-28T11:11:46;95302.06;;;9.40;59.62
36828;BME280;22766;48.042;11.192;2023-12-28T11:14:14;95302.50;;;9.36;60.06
36828;BME280;22766;48.042;11.192;2023-12-28T11:16:41;95297.47;;;9.44;60.68
36828;BME280;22766;48.042;11.192;2023-12-28T11:19:12;95299.91;;;9.55;60.64
36828;BME280;22766;48.042;11.192;2023-12-28T11:21:39;95295.66;;;9.73;59.73
36828;BME280;22766;48.042;11.192;2023-12-28T11:24:07;95277.91;;;9.97;58.06
36828;BME280;22766;48.042;11.192;2023-12-28T11:26:37;95286.78;;;9.95;52.36
36828;BME280;22766;48.042;11.192;2023-12-28T11:29:04;95285.75;;;10.15;52.97
36828;BME280;22766;48.042;11.192;2023-12-28T11:31:35;95268.84;;;10.30;53.36
36828;BME280;22766;48.042;11.192;2023-12-28T11:34:04;95275.88;;;10.38;52.87
36828;BME280;22766;48.042;11.192;2023-12-28T11:36:52;95272.50;;;10.55;53.45
36828;BME280;22766;48.042;11.192;2023-12-28T11:39:29;95279.78;;;10.69;48.47
36828;BME280;22766;48.042;11.192;2023-12-28T11:44:31;95266.84;;;11.04;42.34
36828;BME280;22766;48.042;11.192;2023-12-28T11:46:58;95273.88;;;11.11;40.61
36828;BME280;22766;48.042;11.192;2023-12-28T11:49:26;95268.25;;;11.16;41.60
36828;BME280;22766;48.042;11.192;2023-12-28T11:51:57;95271.44;;;11.27;39.96
36828;BME280;22766;48.042;11.192;2023-12-28T11:54:24;95280.13;;;11.44;40.42
36828;BME280;22766;48.042;11.192;2023-12-28T11:56:52;95277.75;;;11.51;40.01
36828;BME280;22766;48.042;11.192;2023-12-28T11:59:20;95280.88;;;11.37;39.84
36828;BME280;22766;48.042;11.192;2023-12-28T12:01:50;95275.63;;;11.28;40.66
36828;BME280;22766;48.042;11.192;2023-12-28T12:04:21;95271.50;;;11.18;40.19
36828;BME280;22766;48.042;11.192;2023-12-28T12:06:48;95274.84;;;11.10;39.73
36828;BME280;22766;48.042;11.192;2023-12-28T12:09:15;95272.19;;;11.02;40.09
36828;BME280;22766;48.042;11.192;2023-12-28T12:11:42;95273.44;;;10.98;40.32
36828;BME280;22766;48.042;11.192;2023-12-28T12:14:10;95274.47;;;10.88;39.58
36828;BME280;22766;48.042;11.192;2023-12-28T12:16:38;95267.53;;;10.88;40.25
36828;BME280;22766;48.042;11.192;2023-12-28T12:19:05;95269.81;;;10.91;40.03
36828;BME280;22766;48.042;11.192;2023-12-28T12:21:33;95272.84;;;10.87;39.79
36828;BME280;22766;48.042;11.192;2023-12-28T12:24:01;95266.22;;;10.84;40.29
36828;BME280;22766;48.042;11.192;2023-12-28T12:26:32;95261.91;;;10.75;40.48
36828;BME280;22766;48.042;11.192;2023-12-28T12:28:59;95255.56;;;10.70;40.42
36828;BME280;22766;48.042;11.192;2023-12-28T12:31:26;95256.75;;;10.75;40.50
36828;BME280;22766;48.042;11.192;2023-12-28T12:33:53;95250.47;;;10.78;41.11
36828;BME280;22766;48.042;11.192;2023-12-28T12:36:20;95243.16;;;10.73;41.05
36828;BME280;22766;48.042;11.192;2023-12-28T12:38:48;95242.56;;;10.79;41.18
36828;BME280;22766;48.042;11.192;2023-12-28T12:41:15;95243.63;;;10.86;41.25
36828;BME280;22766;48.042;11.192;2023-12-28T12:43:43;95251.91;;;10.90;41.35
36828;BME280;22766;48.042;11.192;2023-12-28T12:46:10;95250.91;;;10.91;41.48
36828;BME280;22766;48.042;11.192;2023-12-28T12:48:37;95248.25;;;10.83;41.96
36828;BME280;22766;48.042;11.192;2023-12-28T12:51:05;95251.66;;;10.83;42.21
36828;BME280;22766;48.042;11.192;2023-12-28T12:53:35;95245.81;;;10.81;42.16
36828;BME280;22766;48.042;11.192;2023-12-28T12:56:04;95238.53;;;10.77;42.28
36828;BME280;22766;48.042;11.192;2023-12-28T12:58:31;95239.47;;;10.76;42.49
36828;BME280;22766;48.042;11.192;2023-12-28T13:01:03;95239.47;;;10.76;42.45